Time;durP1;ratioP1;P1;durP2;ratioP2;P2;SDS_P1;SDS_P2;PMS_P1;PMS_P2;Temp;Humidity;BMP_temperature;BMP_pressure;BME280_temperature;BME280_humidity;BME280_pressure;Samples;Min_cycle;Max_cycle;Signal;HPM_P1;HPM_P2
2024/01/26 09:49:35;;;;;;;10.52;3.10;;;;;;;10.70;100.00;102113.66;10448196;27;20399;-70
2024/01/26 09:54:35;;;;;;;24.92;4.40;;;;;;;11.30;100.00;102132.25;10357928;28;20045;-70
2024/01/26 09:59:36;;;;;;;15.80;3.88;;;;;;;11.69;100.00;102144.19;10444023;28;20025;-69
2024/01/26 10:04:36;;;;;;;8.00;3.72;;;;;;;11.89;100.00;102172.66;10442225;28;20030;-69
2024/01/26 10:09:37;;;;;;;7.63;2.78;;;;;;;12.00;100.00;102180.44;10443121;28;20469;-68
2024/01/26 10:14:38;;;;;;;4.93;2.47;;;;;;;11.88;100.00;102210.84;10475210;28;20106;-69
2024/01/26 10:19:38;;;;;;;11.70;2.65;;;;;;;11.93;100.00;102217.41;10474916;28;20057;-69
2024/01/26 10:24:38;;;;;;;6.72;2.80;;;;;;;12.03;100.00;102247.13;10442478;28;20059;-69
2024/01/26 10:29:39;;;;;;;8.00;3.45;;;;;;;12.24;100.00;102260.09;10442778;28;20634;-69
2024/01/26 10:34:40;;;;;;;10.48;3.55;;;;;;;12.24;100.00;102277.22;10442305;28;20033;-68
2024/01/26 10:39:40;;;;;;;6.70;3.70;;;;;;;12.13;100.00;102293.06;10442114;28;20496;-70
2024/01/26 10:44:42;;;;;;;10.63;2.90;;;;;;;12.27;100.00;102282.31;10456752;28;20033;-68
2024/01/26 10:49:44;;;;;;;3.83;2.75;;;;;;;12.16;100.00;102314.47;10440725;28;20484;-67
2024/01/26 10:54:48;;;;;;;10.23;2.95;;;;;;;12.05;100.00;102310.22;10456224;28;20138;-68
2024/01/26 10:59:48;;;;;;;19.00;4.90;;;;;;;12.22;100.00;102343.59;10393497;28;20066;-69
2024/01/26 11:04:49;;;;;;;15.63;4.47;;;;;;;12.39;100.00;102368.88;10373788;28;20073;-68
2024/01/26 11:09:49;;;;;;;3.38;3.08;;;;;;;12.22;100.00;102370.75;10371655;28;20065;-67
2024/01/26 11:15:06;;;;;;;7.93;3.50;;;;;;;12.07;100.00;102382.34;10371518;28;20049;-68
2024/01/26 11:20:14;;;;;;;9.10;2.72;;;;;;;12.14;100.00;102400.66;10372274;28;20489;-68
2024/01/26 11:25:21;;;;;;;17.73;4.95;;;;;;;12.25;100.00;102409.31;10403487;28;20041;-67
2024/01/26 11:30:25;;;;;;;4.78;2.75;;;;;;;12.06;100.00;102437.69;10372219;28;20045;-68
2024/01/26 11:35:25;;;;;;;12.75;3.97;;;;;;;12.01;100.00;102444.63;10371858;28;20113;-67
2024/01/26 11:40:26;;;;;;;9.88;4.57;;;;;;;12.10;100.00;102470.78;10371654;28;20041;-67
2024/01/26 11:45:44;;;;;;;11.00;3.83;;;;;;;11.95;100.00;102446.13;10402335;28;20121;-69
2024/01/26 11:50:46;;;;;;;4.05;2.22;;;;;;;11.85;100.00;102491.59;10370913;28;20060;-68
2024/01/26 11:55:46;;;;;;;6.43;4.05;;;;;;;11.89;100.00;102483.97;10370633;28;20037;-68
2024/01/26 12:00:46;;;;;;;13.60;3.92;;;;;;;11.63;100.00;102495.75;10370478;28;20521;-66
2024/01/26 12:05:47;;;;;;;8.60;3.42;;;;;;;11.78;100.00;102521.25;10402340;28;20049;-68
2024/01/26 12:10:47;;;;;;;15.20;3.97;;;;;;;11.80;100.00;102540.06;10400928;28;20077;-67
2024/01/26 12:15:48;;;;;;;18.05;4.68;;;;;;;11.60;100.00;102547.66;10370041;28;20076;-70
2024/01/26 12:20:48;;;;;;;7.80;3.78;;;;;;;11.50;100.00;102542.34;10352336;28;20127;-66
2024/01/26 12:25:50;;;;;;;11.50;3.15;;;;;;;11.57;100.00;102566.97;10351329;28;20037;-68
2024/01/26 12:30:50;;;;;;;9.68;4.15;;;;;;;11.63;100.00;102577.16;10368327;28;20041;-68
2024/01/26 12:35:51;;;;;;;13.00;3.13;;;;;;;11.43;100.00;102589.28;10400943;28;20096;-68
2024/01/26 12:40:52;;;;;;;11.48;2.78;;;;;;;11.47;100.00;102610.50;10368112;28;20065;-69
2024/01/26 12:45:53;;;;;;;9.80;3.58;;;;;;;11.31;100.00;102622.09;10368880;28;20132;-67
2024/01/26 12:50:53;;;;;;;29.83;4.55;;;;;;;11.31;100.00;102626.69;10325517;28;20068;-68
2024/01/26 12:55:54;;;;;;;22.92;3.90;;;;;;;11.34;100.00;102632.63;10410193;28;20136;-66
2024/01/26 13:00:54;;;;;;;13.48;4.50;;;;;;;11.35;100.00;102634.31;10441679;28;20041;-67
2024/01/26 13:05:54;;;;;;;10.45;3.00;;;;;;;11.15;100.00;102641.81;10408793;28;20037;-68
2024/01/26 13:10:55;;;;;;;9.63;3.65;;;;;;;10.94;100.00;102654.88;10410656;28;20037;-67
2024/01/26 13:15:56;;;;;;;14.95;3.83;;;;;;;10.60;100.00;102671.00;10410104;28;20131;-68
2024/01/26 13:20:57;;;;;;;12.30;3.03;;;;;;;10.44;100.00;102672.53;10409297;28;20033;-68
2024/01/26 13:25:57;;;;;;;5.22;2.58;;;;;;;10.23;100.00;102680.06;10408697;28;20425;-66
2024/01/26 13:30:59;;;;;;;3.75;3.42;;;;;;;10.20;100.00;102696.59;10408913;28;20116;-67
2024/01/26 13:36:00;;;;;;;9.50;2.95;;;;;;;10.04;100.00;102701.81;10391159;28;20044;-67
2024/01/26 13:41:01;;;;;;;11.30;4.13;;;;;;;9.65;100.00;102710.09;10409428;28;20044;-68
2024/01/26 13:46:02;;;;;;;15.95;3.53;;;;;;;9.32;100.00;102704.19;10407492;28;20524;-67
2024/01/26 13:51:04;;;;;;;21.75;2.75;;;;;;;9.22;100.00;102720.44;10426466;28;20040;-69
2024/01/26 13:56:05;;;;;;;10.70;3.53;;;;;;;9.08;100.00;102724.41;10415867;28;20033;-70
2024/01/26 14:01:06;;;;;;;8.93;3.70;;;;;;;8.89;100.00;102745.19;10440061;28;20453;-68
2024/01/26 14:06:06;;;;;;;20.05;3.90;;;;;;;8.81;100.00;102762.09;10406253;28;20626;-67
2024/01/26 14:11:06;;;;;;;8.30;2.85;;;;;;;8.80;100.00;102765.78;10441681;28;20465;-67
2024/01/26 14:16:07;;;;;;;6.90;3.55;;;;;;;8.67;100.00;102786.81;10449162;28;20060;-68
2024/01/26 14:21:08;;;;;;;8.23;3.67;;;;;;;8.61;100.00;102793.59;10482199;28;20041;-68
2024/01/26 14:26:10;;;;;;;6.03;3.33;;;;;;;8.57;100.00;102798.44;10431121;28;20033;-68
2024/01/26 14:31:10;;;;;;;18.30;4.30;;;;;;;8.43;100.00;102803.38;10388674;28;20034;-69
2024/01/26 14:36:11;;;;;;;11.48;4.03;;;;;;;8.33;100.00;102814.97;10414131;28;20042;-65
2024/01/26 14:41:13;;;;;;;18.05;3.72;;;;;;;8.31;100.00;102826.88;10413228;28;20038;-68
2024/01/26 14:46:13;;;;;;;15.50;6.00;;;;;;;8.36;100.00;102832.72;10413899;28;20050;-70
2024/01/26 14:51:14;;;;;;;22.17;5.40;;;;;;;8.26;100.00;102843.44;10423419;28;20046;-69
2024/01/26 14:56:15;;;;;;;10.23;4.35;;;;;;;8.32;100.00;102863.66;10413699;28;20037;-69
2024/01/26 15:01:15;;;;;;;15.80;6.15;;;;;;;8.10;100.00;102867.38;10413707;28;20080;-68
2024/01/26 15:06:16;;;;;;;6.38;4.50;;;;;;;8.02;100.00;102881.53;10413475;28;20436;-69
2024/01/26 15:11:17;;;;;;;4.95;3.25;;;;;;;7.90;100.00;102883.44;10413366;28;20410;-72
2024/01/26 15:16:18;;;;;;;24.75;4.55;;;;;;;7.86;100.00;102894.63;10412111;28;20056;-68
2024/01/26 15:21:18;;;;;;;7.68;4.35;;;;;;;7.80;100.00;102905.94;10413296;28;20033;-68
2024/01/26 15:26:19;;;;;;;11.38;3.30;;;;;;;7.74;100.00;102917.25;10412238;28;20385;-69
2024/01/26 15:31:21;;;;;;;11.85;4.65;;;;;;;7.66;100.00;102931.38;10412545;28;20056;-68
2024/01/26 15:36:29;;;;;;;19.42;4.47;;;;;;;7.53;100.00;102941.47;10411168;28;20037;-66
2024/01/26 15:41:29;;;;;;;10.45;3.33;;;;;;;7.52;100.00;102947.84;10444616;28;20112;-69
2024/01/26 15:46:30;;;;;;;19.70;3.40;;;;;;;7.37;100.00;102964.31;10435168;28;20046;-68
2024/01/26 15:51:30;;;;;;;17.77;4.47;;;;;;;7.19;100.00;102972.06;10364734;28;20088;-67
2024/01/26 15:56:32;;;;;;;18.00;5.00;;;;;;;7.10;100.00;102994.34;10410156;28;20041;-67
2024/01/26 16:01:32;;;;;;;8.27;4.18;;;;;;;7.00;100.00;102993.38;10410340;28;20438;-67
2024/01/26 16:06:33;;;;;;;23.05;5.63;;;;;;;6.91;100.00;102999.50;10411550;28;20033;-66
2024/01/26 16:11:33;;;;;;;16.05;4.88;;;;;;;6.74;100.00;103000.84;10411500;28;20107;-66
2024/01/26 16:16:34;;;;;;;24.55;4.78;;;;;;;6.70;100.00;103002.03;10410835;28;20033;-65
2024/01/26 16:21:37;;;;;;;11.90;3.88;;;;;;;6.60;100.00;103018.06;10409724;28;20503;-67
2024/01/26 16:26:37;;;;;;;12.50;4.95;;;;;;;6.52;100.00;103025.88;10442495;28;20036;-68
2024/01/26 16:31:40;;;;;;;12.15;4.90;;;;;;;6.43;100.00;103032.81;10410821;28;20045;-67
2024/01/26 16:36:41;;;;;;;12.05;4.07;;;;;;;6.39;100.00;103025.97;10409576;28;20120;-66
2024/01/26 16:41:41;;;;;;;12.10;4.90;;;;;;;6.28;100.00;103034.00;10410323;28;20037;-69
2024/01/26 16:46:41;;;;;;;14.23;6.10;;;;;;;6.28;100.00;103044.75;10413324;28;20061;-67
2024/01/26 16:51:42;;;;;;;15.65;4.75;;;;;;;6.19;100.00;103043.66;10410265;28;20052;-68
2024/01/26 16:56:42;;;;;;;17.80;5.75;;;;;;;6.15;100.00;103063.66;10409122;28;20135;-67
2024/01/26 17:01:43;;;;;;;23.95;5.90;;;;;;;6.02;100.00;103070.94;10409250;28;20034;-65
2024/01/26 17:06:43;;;;;;;23.13;4.80;;;;;;;6.06;100.00;103077.78;10407406;28;20056;-68
2024/01/26 17:11:43;;;;;;;17.25;5.35;;;;;;;5.99;100.00;103085.47;10407550;28;20037;-67
2024/01/26 17:16:44;;;;;;;14.10;7.65;;;;;;;5.97;100.00;103090.13;10407865;28;20060;-66
2024/01/26 17:21:45;;;;;;;10.38;5.10;;;;;;;5.90;100.00;103101.38;10407024;28;20061;-67
2024/01/26 17:26:45;;;;;;;10.05;5.72;;;;;;;5.94;100.00;103105.63;10408010;28;20124;-66
2024/01/26 17:31:47;;;;;;;18.88;7.68;;;;;;;5.90;100.00;103115.69;10408276;28;20048;-67
2024/01/26 17:36:47;;;;;;;16.73;5.45;;;;;;;5.82;100.00;103128.84;10408676;28;20037;-66
2024/01/26 17:41:48;;;;;;;14.00;6.10;;;;;;;5.84;100.00;103132.31;10408597;28;20033;-69
2024/01/26 17:46:48;;;;;;;17.33;6.47;;;;;;;5.73;100.00;103141.13;10390237;28;20057;-67
2024/01/26 17:51:53;;;;;;;13.85;6.80;;;;;;;5.77;100.00;103133.69;10406647;28;20041;-68
2024/01/26 17:56:53;;;;;;;35.85;9.05;;;;;;;5.75;100.00;103143.72;10408166;28;20112;-66
2024/01/26 18:01:54;;;;;;;23.70;6.00;;;;;;;5.70;100.00;103151.25;10390570;28;20021;-67
2024/01/26 18:06:54;;;;;;;10.00;5.40;;;;;;;5.65;100.00;103143.53;10408800;28;20128;-68
2024/01/26 18:11:54;;;;;;;21.67;8.13;;;;;;;5.57;100.00;103145.88;10398366;28;20037;-68
2024/01/26 18:16:55;;;;;;;16.20;8.13;;;;;;;5.64;100.00;103159.75;10415186;28;20196;-67
2024/01/26 18:21:55;;;;;;;20.85;5.95;;;;;;;5.62;100.00;103165.25;10414647;28;20045;-68
2024/01/26 18:26:57;;;;;;;7.47;5.13;;;;;;;5.55;100.00;103163.94;10416961;28;20075;-67
2024/01/26 18:31:57;;;;;;;23.13;6.30;;;;;;;5.49;100.00;103172.47;10416979;28;20401;-66
2024/01/26 18:36:58;;;;;;;29.50;6.53;;;;;;;5.45;100.00;103189.75;10399597;28;20056;-68
2024/01/26 18:41:58;;;;;;;18.77;7.57;;;;;;;5.35;100.00;103190.38;10417022;28;20073;-68
2024/01/26 18:46:59;;;;;;;21.23;6.15;;;;;;;5.37;100.00;103187.63;10416988;28;20065;-66
2024/01/26 18:51:59;;;;;;;17.33;7.65;;;;;;;5.38;100.00;103199.22;10416730;28;20088;-69
2024/01/26 18:57:00;;;;;;;8.65;5.75;;;;;;;5.29;100.00;103215.00;10418694;28;20045;-68
2024/01/26 19:02:02;;;;;;;20.90;6.88;;;;;;;5.29;100.00;103217.69;10417967;28;20073;-68
2024/01/26 19:07:03;;;;;;;33.35;7.78;;;;;;;5.30;100.00;103230.16;10416533;28;20037;-66
2024/01/26 19:12:05;;;;;;;20.77;8.65;;;;;;;5.23;100.00;103236.94;10414717;28;20117;-68
2024/01/26 19:17:05;;;;;;;20.23;7.40;;;;;;;5.29;100.00;103247.22;10419541;28;20078;-67
2024/01/26 19:22:06;;;;;;;20.70;7.38;;;;;;;5.22;100.00;103254.00;10418206;28;20572;-67
2024/01/26 19:27:06;;;;;;;29.80;8.00;;;;;;;5.20;100.00;103258.63;10412220;28;20033;-66
2024/01/26 19:32:07;;;;;;;23.48;7.05;;;;;;;5.18;100.00;103271.28;10412817;28;20057;-66
2024/01/26 19:37:08;;;;;;;33.70;7.07;;;;;;;5.14;100.00;103272.47;10411204;28;20061;-68
2024/01/26 19:42:08;;;;;;;25.20;8.80;;;;;;;5.08;100.00;103259.47;10410949;28;20071;-66
2024/01/26 19:47:08;;;;;;;23.08;6.35;;;;;;;4.97;100.00;103267.34;10411872;28;20473;-68
2024/01/26 19:52:09;;;;;;;24.27;7.93;;;;;;;4.96;100.00;103271.03;10412248;28;20041;-68
2024/01/26 19:57:09;;;;;;;23.70;8.13;;;;;;;4.87;100.00;103278.72;10411272;28;20435;-67
2024/01/26 20:02:10;;;;;;;24.15;7.78;;;;;;;4.87;100.00;103277.84;10411927;28;20087;-68
2024/01/26 20:07:12;;;;;;;21.98;8.52;;;;;;;4.81;100.00;103275.56;10412469;28;20050;-69
2024/01/26 20:12:12;;;;;;;24.67;7.80;;;;;;;4.77;100.00;103280.28;10395529;28;20139;-67
2024/01/26 20:17:14;;;;;;;28.38;7.53;;;;;;;4.76;100.00;103285.78;10393878;28;20053;-67
2024/01/26 20:22:14;;;;;;;20.85;6.78;;;;;;;4.75;100.00;103284.88;10411703;28;20447;-67
2024/01/26 20:27:16;;;;;;;17.42;7.00;;;;;;;4.69;100.00;103281.75;10410911;28;20049;-67
2024/01/26 20:32:17;;;;;;;12.48;6.25;;;;;;;4.61;100.00;103291.16;10410155;28;20035;-67
2024/01/26 20:37:17;;;;;;;15.10;8.45;;;;;;;4.59;100.00;103285.03;10409405;28;20470;-68
2024/01/26 20:42:18;;;;;;;19.98;7.00;;;;;;;4.51;100.00;103275.78;10410478;28;20123;-68
2024/01/26 20:47:21;;;;;;;32.65;7.20;;;;;;;4.48;100.00;103284.88;10410459;28;20482;-69
2024/01/26 20:52:24;;;;;;;15.70;6.88;;;;;;;4.47;100.00;103301.06;10409020;28;20063;-66
2024/01/26 20:57:25;;;;;;;20.80;6.65;;;;;;;4.49;100.00;103293.78;10408791;28;20512;-67
2024/01/26 21:02:26;;;;;;;25.85;7.93;;;;;;;4.44;100.00;103291.41;10409903;28;20044;-69
2024/01/26 21:07:26;;;;;;;31.48;7.65;;;;;;;4.41;100.00;103279.03;10408459;28;20465;-67
2024/01/26 21:12:27;;;;;;;32.47;10.02;;;;;;;4.38;100.00;103289.97;10408500;28;20080;-68
2024/01/26 21:17:27;;;;;;;48.22;9.93;;;;;;;4.34;100.00;103285.78;10409340;28;20030;-66
2024/01/26 21:22:28;;;;;;;12.00;7.18;;;;;;;4.35;100.00;103282.13;10408828;28;20032;-68
2024/01/26 21:27:28;;;;;;;25.58;7.22;;;;;;;4.39;100.00;103294.38;10409176;28;20052;-67
2024/01/26 21:32:28;;;;;;;23.70;7.13;;;;;;;4.36;100.00;103288.34;10391372;28;20400;-67
2024/01/26 21:37:30;;;;;;;33.28;9.40;;;;;;;4.25;100.00;103299.75;10409010;28;20030;-67
2024/01/26 21:42:31;;;;;;;21.38;7.30;;;;;;;4.23;100.00;103298.13;10411483;28;20038;-68
2024/01/26 21:47:31;;;;;;;13.52;5.03;;;;;;;4.19;100.00;103305.50;10411578;28;20375;-68
2024/01/26 21:52:32;;;;;;;34.58;6.15;;;;;;;4.25;100.00;103310.50;10406703;28;20041;-69
2024/01/26 21:57:32;;;;;;;24.02;10.00;;;;;;;4.22;100.00;103312.50;10407634;28;20056;-69
2024/01/26 22:02:33;;;;;;;23.17;11.13;;;;;;;4.20;100.00;103315.28;10440015;28;20110;-68
2024/01/26 22:07:33;;;;;;;19.98;9.10;;;;;;;4.22;100.00;103313.38;10407634;28;20029;-67
2024/01/26 22:12:33;;;;;;;47.88;16.50;;;;;;;4.28;100.00;103323.72;10390931;28;20117;-67
2024/01/26 22:17:34;;;;;;;19.40;8.70;;;;;;;4.26;100.00;103322.94;10406911;28;20110;-66
2024/01/26 22:22:34;;;;;;;22.90;8.45;;;;;;;4.29;100.00;103328.09;10407333;28;20040;-68
2024/01/26 22:27:35;;;;;;;25.58;6.30;;;;;;;4.24;100.00;103324.84;10407390;28;20125;-67
2024/01/26 22:32:35;;;;;;;9.15;5.53;;;;;;;4.27;100.00;103340.75;10407358;28;20053;-67
2024/01/26 22:37:37;;;;;;;15.02;6.32;;;;;;;4.20;100.00;103336.72;10407487;28;20175;-67
2024/01/26 22:42:38;;;;;;;31.25;7.50;;;;;;;4.15;100.00;103336.16;10407422;28;20041;-69
2024/01/26 22:47:38;;;;;;;22.73;5.93;;;;;;;4.18;100.00;103338.66;10422653;28;20133;-67
2024/01/26 22:52:39;;;;;;;19.65;6.25;;;;;;;4.13;100.00;103348.81;10407411;28;20045;-68
2024/01/26 22:57:39;;;;;;;16.50;3.75;;;;;;;3.99;100.00;103357.72;10414975;28;20037;-68
2024/01/26 23:02:39;;;;;;;12.68;5.25;;;;;;;3.90;100.00;103351.09;10415757;28;20045;-67
2024/01/26 23:07:40;;;;;;;16.38;6.55;;;;;;;3.89;100.00;103351.16;10396266;28;20069;-67
2024/01/26 23:12:40;;;;;;;18.50;6.53;;;;;;;3.88;100.00;103362.84;10412967;28;20052;-66
2024/01/26 23:17:41;;;;;;;15.68;6.63;;;;;;;3.90;100.00;103361.81;10413989;28;20029;-68
2024/01/26 23:22:42;;;;;;;9.43;5.95;;;;;;;3.90;100.00;103372.53;10413139;28;20572;-66
2024/01/26 23:27:42;;;;;;;11.57;6.03;;;;;;;3.91;100.00;103382.28;10413532;28;20033;-67
2024/01/26 23:32:43;;;;;;;25.83;6.80;;;;;;;3.91;100.00;103384.97;10412086;28;20045;-66
2024/01/26 23:37:44;;;;;;;25.10;6.13;;;;;;;3.94;100.00;103400.00;10413545;28;20037;-66
2024/01/26 23:42:44;;;;;;;16.13;5.95;;;;;;;3.89;100.00;103389.56;10413065;28;20056;-68
2024/01/26 23:47:44;;;;;;;26.08;4.55;;;;;;;3.94;100.00;103374.06;10412583;28;20053;-67
2024/01/26 23:52:47;;;;;;;15.93;4.57;;;;;;;3.86;100.00;103368.31;10411574;28;20408;-67
2024/01/26 23:57:48;;;;;;;20.83;6.13;;;;;;;3.98;100.00;103377.41;10411900;28;20393;-67
